Global Endeavor — 3EOJ9 — position and weather

sailwx.info

Track history (hours):
 
Tides and Currents Weather Stations Pressure Air Temp Water Temp Dewpoint Dewpoint Depression Visibility Wind Speed Wind Dir Waves Ship Positions

Global Endeavor

Last reported at 2016-Sep-28 15:24 UTC. Time now 2016-Sep-29 13:37 UTC.
Position N 46°12' W 126°32'.

Length 175 m; draft 9.6 m.

Type: Cargo ship. MMSI: 356619000.

Date/timePositionNaut miles runAvg speedWind from/ knotsBaromVisibWave heightAir tempDewpointWater temp
2016-Sep-28 15:24N 46°12' W 126°32'57 8.4
2016-Sep-28 08:33N 46°12' W 125°09'45 8.9
2016-Sep-28 03:34N 46°15' W 124°05'9 8.7
2016-Sep-28 02:33N 46°11' W 123°53'1010.2
2016-Sep-28 01:33N 46°15' W 123°40'18 9.0
2016-Sep-27 23:33N 46°09' W 123°15'12 3.1
2016-Sep-27 19:32N 46°07' W 122°58'0 0.0
2016-Sep-27 14:32N 46°07' W 122°58'0 0.0
2016-Sep-27 13:32N 46°07' W 122°58'0 0.0
2016-Sep-27 10:32N 46°07' W 122°58'0 0.0
2016-Sep-27 00:29N 46°07' W 122°58'0 0.0
2016-Sep-26 20:32N 46°07' W 122°58'0 0.0
2016-Sep-26 19:32N 46°07' W 122°58'0 0.0
2016-Sep-26 15:29N 46°07' W 122°58'0 0.0
2016-Sep-26 13:32N 46°07' W 122°58'0 0.0
2016-Sep-26 11:29N 46°07' W 122°58'0 0.0
2016-Sep-26 08:32N 46°07' W 122°58'0 0.0
2016-Sep-26 02:32N 46°07' W 122°58'0 0.0
2016-Sep-26 01:32N 46°07' W 122°58'0 0.0
2016-Sep-26 00:32N 46°07' W 122°58'0 0.0
2016-Sep-25 21:26N 46°07' W 122°58'0 0.0
2016-Sep-25 17:23N 46°07' W 122°58'0 0.0
2016-Sep-25 16:32N 46°07' W 122°58'0 0.0
2016-Sep-25 15:32N 46°07' W 122°58'0 0.0
2016-Sep-25 14:29N 46°07' W 122°58'0 0.0
2016-Sep-25 12:32N 46°07' W 122°58'0 0.0
2016-Sep-25 11:32N 46°07' W 122°58'0 0.0
2016-Sep-25 10:29N 46°07' W 122°58'0 0.0
2016-Sep-25 09:32N 46°07' W 122°58'0 0.0
2016-Sep-25 07:32N 46°07' W 122°58'0 0.0
2016-Sep-25 04:32N 46°07' W 122°58'0 0.0
2016-Sep-25 00:29N 46°07' W 122°58'0 0.0
2016-Sep-24 22:32N 46°07' W 122°58'0 0.0
2016-Sep-24 21:23N 46°07' W 122°58'0 0.0
2016-Sep-24 19:29N 46°07' W 122°58'0 0.0
2016-Sep-24 18:32N 46°07' W 122°58'0 0.0
2016-Sep-24 17:26N 46°07' W 122°58'0 0.0
2016-Sep-24 16:32N 46°07' W 122°58'0 0.0
2016-Sep-24 14:32N 46°07' W 122°58'1 0.4
2016-Sep-24 12:31N 46°07' W 122°59'0 0.0
2016-Sep-24 10:31N 46°07' W 122°59'0 0.0
2016-Sep-24 09:31N 46°07' W 122°59'0 0.0
2016-Sep-24 03:31N 46°07' W 122°58'0 0.1
2016-Sep-24 02:31N 46°07' W 122°58'0 0.1
2016-Sep-24 01:31N 46°07' W 122°59'0 0.0
2016-Sep-24 00:31N 46°07' W 122°59'0 0.0
2016-Sep-23 19:31N 46°07' W 122°59'0 0.0
2016-Sep-23 17:31N 46°07' W 122°59'0 0.0
2016-Sep-23 16:31N 46°07' W 122°59'0 0.0
2016-Sep-23 15:31N 46°07' W 122°59'0 0.0
2016-Sep-23 13:31N 46°07' W 122°59'0 0.0
2016-Sep-23 09:31N 46°07' W 122°59'0 0.0
2016-Sep-23 06:31N 46°07' W 122°59'0 0.1
2016-Sep-23 04:31N 46°07' W 122°58'0 0.0
2016-Sep-23 03:31N 46°07' W 122°58'0 0.0
2016-Sep-23 02:31N 46°07' W 122°58'0 0.0
2016-Sep-23 01:31N 46°07' W 122°58'0 0.1
2016-Sep-23 00:31N 46°07' W 122°58'0 0.1
2016-Sep-22 23:31N 46°07' W 122°59'0 0.0
2016-Sep-22 20:31N 46°07' W 122°59'0 0.0
2016-Sep-22 12:31N 46°07' W 122°59'0 0.0
2016-Sep-22 04:31N 46°07' W 122°58'0 0.0
2016-Sep-22 03:25N 46°07' W 122°58'0 0.0
2016-Sep-22 00:25N 46°07' W 122°58'0 0.1
2016-Sep-21 23:31N 46°07' W 122°59'0 0.1
2016-Sep-21 22:31N 46°07' W 122°59'0 0.0
2016-Sep-21 19:31N 46°07' W 122°59'0 0.0
2016-Sep-21 16:31N 46°07' W 122°59'0 0.0
2016-Sep-21 09:25N 46°07' W 122°59'0 0.0
2016-Sep-21 08:31N 46°07' W 122°59'0 0.0
2016-Sep-21 05:31N 46°07' W 122°59'0 0.1
2016-Sep-21 03:31N 46°07' W 122°58'0 0.0
2016-Sep-21 02:31N 46°07' W 122°58'55 6.1
2016-Sep-20 17:33N 46°11' W 124°17'30 9.9
2016-Sep-20 14:33N 46°12' W 125°00'1111.1
2016-Sep-20 13:33N 46°12' W 125°16'  
Track history (hours):
 
Tides and Currents Weather Stations Pressure Air Temp Water Temp Dewpoint Dewpoint Depression Visibility Wind Speed Wind Dir Waves Ship Positions

Global Endeavor

Last reported at 2016-Sep-28 15:24 UTC. Time now 2016-Sep-29 13:37 UTC.
Position N 46°12' W 126°32'.

Length 175 m; draft 9.6 m.

Type: Cargo ship. MMSI: 356619000.

Date/timePositionNaut miles runAvg speedWind from/ knotsBaromVisibWave heightAir tempDewpointWater temp
2016-Sep-28 15:24N 46°12' W 126°32'57 8.4
2016-Sep-28 08:33N 46°12' W 125°09'45 8.9
2016-Sep-28 03:34N 46°15' W 124°05'9 8.7
2016-Sep-28 02:33N 46°11' W 123°53'1010.2
2016-Sep-28 01:33N 46°15' W 123°40'18 9.0
2016-Sep-27 23:33N 46°09' W 123°15'12 3.1
2016-Sep-27 19:32N 46°07' W 122°58'0 0.0
2016-Sep-27 14:32N 46°07' W 122°58'0 0.0
2016-Sep-27 13:32N 46°07' W 122°58'0 0.0
2016-Sep-27 10:32N 46°07' W 122°58'0 0.0
2016-Sep-27 00:29N 46°07' W 122°58'0 0.0
2016-Sep-26 20:32N 46°07' W 122°58'0 0.0
2016-Sep-26 19:32N 46°07' W 122°58'0 0.0
2016-Sep-26 15:29N 46°07' W 122°58'0 0.0
2016-Sep-26 13:32N 46°07' W 122°58'0 0.0
2016-Sep-26 11:29N 46°07' W 122°58'0 0.0
2016-Sep-26 08:32N 46°07' W 122°58'0 0.0
2016-Sep-26 02:32N 46°07' W 122°58'0 0.0
2016-Sep-26 01:32N 46°07' W 122°58'0 0.0
2016-Sep-26 00:32N 46°07' W 122°58'0 0.0
2016-Sep-25 21:26N 46°07' W 122°58'0 0.0
2016-Sep-25 17:23N 46°07' W 122°58'0 0.0
2016-Sep-25 16:32N 46°07' W 122°58'0 0.0
2016-Sep-25 15:32N 46°07' W 122°58'0 0.0
2016-Sep-25 14:29N 46°07' W 122°58'0 0.0
2016-Sep-25 12:32N 46°07' W 122°58'0 0.0
2016-Sep-25 11:32N 46°07' W 122°58'0 0.0
2016-Sep-25 10:29N 46°07' W 122°58'0 0.0
2016-Sep-25 09:32N 46°07' W 122°58'0 0.0
2016-Sep-25 07:32N 46°07' W 122°58'0 0.0
2016-Sep-25 04:32N 46°07' W 122°58'0 0.0
2016-Sep-25 00:29N 46°07' W 122°58'0 0.0
2016-Sep-24 22:32N 46°07' W 122°58'0 0.0
2016-Sep-24 21:23N 46°07' W 122°58'0 0.0
2016-Sep-24 19:29N 46°07' W 122°58'0 0.0
2016-Sep-24 18:32N 46°07' W 122°58'0 0.0
2016-Sep-24 17:26N 46°07' W 122°58'0 0.0
2016-Sep-24 16:32N 46°07' W 122°58'0 0.0
2016-Sep-24 14:32N 46°07' W 122°58'1 0.4
2016-Sep-24 12:31N 46°07' W 122°59'0 0.0
2016-Sep-24 10:31N 46°07' W 122°59'0 0.0
2016-Sep-24 09:31N 46°07' W 122°59'0 0.0
2016-Sep-24 03:31N 46°07' W 122°58'0 0.1
2016-Sep-24 02:31N 46°07' W 122°58'0 0.1
2016-Sep-24 01:31N 46°07' W 122°59'0 0.0
2016-Sep-24 00:31N 46°07' W 122°59'0 0.0
2016-Sep-23 19:31N 46°07' W 122°59'0 0.0
2016-Sep-23 17:31N 46°07' W 122°59'0 0.0
2016-Sep-23 16:31N 46°07' W 122°59'0 0.0
2016-Sep-23 15:31N 46°07' W 122°59'0 0.0
2016-Sep-23 13:31N 46°07' W 122°59'0 0.0
2016-Sep-23 09:31N 46°07' W 122°59'0 0.0
2016-Sep-23 06:31N 46°07' W 122°59'0 0.1
2016-Sep-23 04:31N 46°07' W 122°58'0 0.0
2016-Sep-23 03:31N 46°07' W 122°58'0 0.0
2016-Sep-23 02:31N 46°07' W 122°58'0 0.0
2016-Sep-23 01:31N 46°07' W 122°58'0 0.1
2016-Sep-23 00:31N 46°07' W 122°58'0 0.1
2016-Sep-22 23:31N 46°07' W 122°59'0 0.0
2016-Sep-22 20:31N 46°07' W 122°59'0 0.0
2016-Sep-22 12:31N 46°07' W 122°59'0 0.0
2016-Sep-22 04:31N 46°07' W 122°58'0 0.0
2016-Sep-22 03:25N 46°07' W 122°58'0 0.0
2016-Sep-22 00:25N 46°07' W 122°58'0 0.1
2016-Sep-21 23:31N 46°07' W 122°59'0 0.1
2016-Sep-21 22:31N 46°07' W 122°59'0 0.0
2016-Sep-21 19:31N 46°07' W 122°59'0 0.0
2016-Sep-21 16:31N 46°07' W 122°59'0 0.0
2016-Sep-21 09:25N 46°07' W 122°59'0 0.0
2016-Sep-21 08:31N 46°07' W 122°59'0 0.0
2016-Sep-21 05:31N 46°07' W 122°59'0 0.1
2016-Sep-21 03:31N 46°07' W 122°58'0 0.0
2016-Sep-21 02:31N 46°07' W 122°58'55 6.1
2016-Sep-20 17:33N 46°11' W 124°17'30 9.9
2016-Sep-20 14:33N 46°12' W 125°00'1111.1
2016-Sep-20 13:33N 46°12' W 125°16'  

Dump ship's entire track history